ADDS METAR Data INFO
IDs: Format: Raw Decoded Include TAF

Data at: 0140 UTC 26 Feb 2018

KGNV 260053Z 27005KT 10SM CLR 21/15 A3016 RMK AO2 SLP211 T02110150
KGNV 252353Z 27005KT 10SM FEW075 23/14 A3014 RMK AO2 SLP205 T02330144 10294 20233 53008
KGNV 252253Z 21009KT 10SM CLR 26/14 A3013 RMK AO2 SLP200 T02610144
KGNV 252153Z 25011KT 10SM FEW060 28/14 A3012 RMK AO2 SLP197 T02780139
KGNV 252053Z 24008KT 10SM FEW055 SCT075 BKN090 29/15 A3012 RMK AO2 SLP196 T02890150 56018
KGNV 251953Z 17007KT 10SM FEW050 SCT065 BKN095 29/16 A3013 RMK AO2 SLP200 T02890156
KGNV 251853Z 21009KT 10SM SCT050 BKN075 BKN090 27/16 A3015 RMK AO2 SLP207 T02720161
KGNV 251753Z 18009KT 10SM SCT046 SCT085 28/17 A3017 RMK AO2 SLP214 T02780172 10283 20183 58015
KGNV 251653Z 20010G16KT 10SM CLR 27/18 A3020 RMK AO2 SLP224 T02670178
KGNV 251553Z 21008KT 160V240 10SM FEW023 FEW060 BKN085 24/18 A3021 RMK AO2 SLP229 T02440183
KGNV 251453Z 20008KT 10SM BKN055 24/18 A3022 RMK AO2 SLP230 T02440183 51011
KGNV 251353Z 20005KT 10SM CLR 22/18 A3021 RMK AO2 SLP228 T02220183
KGNV 251253Z 00000KT 10SM CLR 19/18 A3019 RMK AO2 SLP222 T01940183
KGNV 251153Z 15003KT 10SM SCT040 BKN085 19/18 A3018 RMK AO2 RAB12E22 SLP219 P0000 60000 T01890178 10211 20172 53007
KGNV 251053Z AUTO 16003KT 10SM BKN075 OVC085 19/17 A3018 RMK AO2 SLP217 T01890172
KGNV 250953Z AUTO 00000KT 10SM FEW048 18/17 A3016 RMK AO2 SLP211 T01830172
KGNV 250853Z AUTO 00000KT 10SM FEW090 18/17 A3016 RMK AO2 SLP212 T01830172 56011
KGNV 250753Z AUTO 11003KT 10SM FEW060 BKN090 19/18 A3017 RMK AO2 SLP212 T01940183
KGNV 250653Z AUTO 19003KT 10SM SCT043 BKN065 OVC090 21/18 A3019 RMK AO2 SLP219 T02110178
KGNV 250553Z AUTO 00000KT 10SM BKN042 OVC060 20/19 A3020 RMK AO2 SLP223 60000 T02000189 10244 20189 50006
KGNV 250453Z AUTO 00000KT 10SM OVC035 20/18 A3020 RMK AO2 SLP224 T02000178 402890156
KGNV 250353Z AUTO 00000KT 10SM BKN035 BKN075 OVC090 20/17 A3019 RMK AO2 SLP221 T02000172
KGNV 250253Z AUTO 00000KT 10SM CLR 19/18 A3018 RMK AO2 SLP216 60000 T01940178 51015
KGNV 250153Z AUTO 00000KT 10SM FEW050 OVC090 22/17 A3016 RMK AO2 RAB0054E14 SLP212 P0000 T02220172
KGNV 250053Z AUTO 20005KT 10SM BKN047 OVC060 24/17 A3015 RMK AO2 SLP209 T02440167
KGNV 242353Z AUTO 00000KT 10SM SCT055 23/16 A3013 RMK AO2 SLP202 T02330161 10289 20228 55003
KGNV 242253Z AUTO 16005KT 10SM CLR 26/16 A3013 RMK AO2 SLP201 T02560156
KGNV 242153Z AUTO 20006KT 10SM CLR 27/15 A3013 RMK AO2 SLP202 T02670150
KGNV 242053Z AUTO VRB03KT 10SM CLR 28/15 A3014 RMK AO2 SLP205 T02830150 56030
KGNV 241953Z 23006KT 10SM FEW055 29/15 A3016 RMK AO2 SLP210 T02890150
KGNV 241853Z 16006KT 10SM BKN049 BKN060 27/15 A3019 RMK AO2 SLP222 T02720150
KGNV 241753Z 14004KT 10SM SCT048 BKN060 27/16 A3023 RMK AO2 SLP234 T02670156 10272 20167 58019
KGNV 241653Z 14006KT 10SM FEW029 BKN036 BKN070 26/16 A3025 RMK AO2 SLP243 T02610161
KGNV 241553Z 20009KT 10SM SCT022 BKN030 25/18 A3027 RMK AO2 SLP249 T02500178
KGNV 241453Z 16009KT 10SM FEW013 23/19 A3029 RMK AO2 SLP253 T02280189 50004
KGNV 241353Z 00000KT 10SM CLR 19/19 A3029 RMK AO2 SLP254 T01890189